Time;durP1;ratioP1;P1;durP2;ratioP2;P2;SDS_P1;SDS_P2;PMS_P1;PMS_P2;Temp;Humidity;BMP_temperature;BMP_pressure;BME280_temperature;BME280_humidity;BME280_pressure;Samples;Min_cycle;Max_cycle;Signal;HPM_P1;HPM_P2
2023/03/27 00:00:11;;;;;;;13.98;1.67;;;3.30;99.90;;;;;;4955873;28;20065;-85
2023/03/27 00:02:37;;;;;;;17.17;2.20;;;3.30;99.90;;;;;;4956364;28;20045;-86
2023/03/27 00:05:04;;;;;;;14.43;2.03;;;3.40;99.90;;;;;;4951920;28;20759;-86
2023/03/27 00:07:29;;;;;;;12.90;2.53;;;3.40;99.90;;;;;;4952773;28;20069;-84
2023/03/27 00:09:56;;;;;;;7.93;1.50;;;3.40;99.90;;;;;;4952841;28;20467;-85
2023/03/27 00:12:22;;;;;;;16.83;3.03;;;3.80;99.90;;;;;;4953306;28;20043;-85
2023/03/27 00:14:47;;;;;;;8.60;1.85;;;4.00;99.90;;;;;;4968338;28;20073;-85
2023/03/27 00:17:13;;;;;;;9.43;1.35;;;4.00;99.90;;;;;;4952718;28;20057;-84
2023/03/27 00:19:39;;;;;;;13.55;1.85;;;3.60;99.90;;;;;;4953367;28;20061;-84
2023/03/27 00:22:04;;;;;;;12.65;1.40;;;3.50;99.90;;;;;;4950873;28;20081;-84
2023/03/27 00:24:31;;;;;;;13.95;2.30;;;3.30;99.90;;;;;;4953655;28;20053;-85
2023/03/27 00:26:57;;;;;;;17.08;2.08;;;4.00;99.90;;;;;;4952335;28;20454;-85
2023/03/27 00:29:22;;;;;;;14.88;1.42;;;3.30;99.90;;;;;;4952531;28;20046;-85
2023/03/27 00:31:48;;;;;;;14.52;2.40;;;3.20;99.90;;;;;;4952579;28;20498;-85
2023/03/27 00:34:14;;;;;;;14.43;1.80;;;3.10;99.90;;;;;;4952142;28;20050;-85
2023/03/27 00:36:39;;;;;;;13.40;1.95;;;3.60;99.90;;;;;;4951721;28;20042;-85
2023/03/27 00:39:05;;;;;;;10.68;1.70;;;3.90;99.90;;;;;;4968505;28;20050;-86
2023/03/27 00:41:32;;;;;;;8.27;1.30;;;3.10;99.90;;;;;;4951938;28;20046;-84
2023/03/27 00:43:58;;;;;;;10.25;1.50;;;3.10;99.90;;;;;;4968916;28;20058;-85
2023/03/27 00:46:34;;;;;;;12.13;1.52;;;3.10;99.90;;;;;;4952119;28;20043;-85
2023/03/27 00:49:03;;;;;;;9.20;1.23;;;3.00;99.90;;;;;;4952190;28;20065;-85
2023/03/27 00:51:30;;;;;;;9.75;1.17;;;3.90;99.90;;;;;;4952051;28;20487;-85
2023/03/27 00:53:56;;;;;;;13.05;2.20;;;3.40;99.90;;;;;;4952670;28;20063;-86
2023/03/27 00:56:23;;;;;;;14.05;1.48;;;3.00;99.90;;;;;;4952026;28;20042;-85
2023/03/27 00:58:54;;;;;;;10.55;1.60;;;3.10;99.90;;;;;;4968890;28;20470;-86
2023/03/27 01:01:22;;;;;;;9.35;1.15;;;3.00;99.90;;;;;;4951705;28;20501;-85
2023/03/27 01:03:48;;;;;;;14.25;1.80;;;3.10;99.90;;;;;;4967869;28;20053;-85
2023/03/27 01:06:15;;;;;;;10.20;1.65;;;3.00;99.90;;;;;;4951245;28;20101;-85
2023/03/27 01:08:43;;;;;;;11.30;1.88;;;2.90;99.90;;;;;;4935561;29;20364;-85
2023/03/27 01:11:18;;;;;;;8.13;1.95;;;3.10;99.90;;;;;;4963500;28;20039;-85
2023/03/27 01:14:03;;;;;;;11.02;1.33;;;3.00;99.90;;;;;;4949540;28;20388;-86
2023/03/27 01:16:39;;;;;;;11.65;1.25;;;3.00;99.90;;;;;;4948206;29;20039;-85
2023/03/27 01:19:06;;;;;;;11.05;1.75;;;3.90;99.90;;;;;;4949448;29;20043;-85
2023/03/27 01:22:10;;;;;;;11.55;1.55;;;3.00;99.90;;;;;;4947386;29;20082;-85
2023/03/27 01:24:40;;;;;;;11.45;0.95;;;3.00;99.90;;;;;;4947713;29;20055;-85
2023/03/27 01:27:10;;;;;;;9.65;1.63;;;3.00;99.90;;;;;;4949034;28;20150;-85
2023/03/27 01:29:49;;;;;;;6.65;1.08;;;3.00;99.90;;;;;;4948666;29;20634;-86
2023/03/27 01:32:43;;;;;;;14.15;2.05;;;3.00;99.90;;;;;;4964075;28;20047;-86
2023/03/27 01:35:09;;;;;;;10.15;1.63;;;2.90;99.90;;;;;;4947630;29;20126;-85
2023/03/27 01:38:03;;;;;;;10.82;1.88;;;3.00;99.90;;;;;;4948198;29;20039;-86
2023/03/27 01:40:31;;;;;;;;;;;2.90;99.90;;;;;;4949467;29;20102;-85
2023/03/27 01:43:03;;;;;;;16.80;1.35;;;3.10;99.90;;;;;;4933190;29;20033;-85
2023/03/27 01:45:46;;;;;;;7.93;1.95;;;2.90;99.90;;;;;;4948759;29;20075;-85
2023/03/27 01:48:22;;;;;;;10.30;1.38;;;2.80;99.90;;;;;;4964817;28;20051;-86
2023/03/27 01:50:52;;;;;;;9.32;1.27;;;2.90;99.90;;;;;;4949092;28;20090;-86
2023/03/27 01:53:30;;;;;;;13.10;1.90;;;2.80;99.90;;;;;;4967475;28;20129;-85
2023/03/27 01:56:00;;;;;;;12.57;1.40;;;2.80;99.90;;;;;;4952033;28;20124;-85
2023/03/27 01:58:34;;;;;;;9.30;1.25;;;3.20;99.90;;;;;;4951400;28;20050;-85
2023/03/27 02:01:01;;;;;;;9.38;1.20;;;3.80;99.90;;;;;;4952497;28;20043;-85
2023/03/27 02:03:34;;;;;;;11.35;1.33;;;2.50;99.90;;;;;;4970036;28;20042;-85
2023/03/27 02:06:07;;;;;;;8.75;1.30;;;2.50;99.90;;;;;;4969594;28;20047;-85
2023/03/27 02:08:41;;;;;;;8.30;1.70;;;2.50;99.90;;;;;;4955319;28;20046;-85
2023/03/27 02:11:07;;;;;;;9.73;1.55;;;2.50;99.90;;;;;;4971442;28;20486;-85
2023/03/27 02:13:39;;;;;;;13.20;1.85;;;2.60;99.90;;;;;;4971499;28;20104;-85
2023/03/27 02:16:08;;;;;;;9.63;1.65;;;2.90;99.90;;;;;;4958419;28;20053;-85
2023/03/27 02:18:38;;;;;;;15.68;2.05;;;2.70;99.90;;;;;;4959039;28;20482;-86
2023/03/27 02:21:05;;;;;;;13.77;1.75;;;3.20;99.90;;;;;;4973154;28;20046;-84
2023/03/27 02:23:31;;;;;;;11.13;2.63;;;2.90;99.90;;;;;;4974854;28;20043;-85
2023/03/27 02:25:58;;;;;;;10.10;1.95;;;3.80;99.90;;;;;;4958529;28;20141;-85
2023/03/27 02:28:33;;;;;;;9.50;2.03;;;3.00;99.90;;;;;;4974117;28;20441;-85
2023/03/27 02:31:05;;;;;;;9.23;1.50;;;3.50;99.90;;;;;;4958443;28;20136;-85
2023/03/27 02:33:50;;;;;;;8.73;1.60;;;3.00;99.90;;;;;;4957859;28;20451;-85
2023/03/27 02:36:36;;;;;;;9.48;1.63;;;3.00;99.90;;;;;;4973260;28;20855;-84
2023/03/27 02:39:17;;;;;;;11.85;1.73;;;2.90;99.90;;;;;;4958500;28;20413;-85
2023/03/27 02:41:44;;;;;;;12.45;1.50;;;2.90;99.90;;;;;;4957248;28;20050;-85
2023/03/27 02:44:28;;;;;;;8.35;2.10;;;2.90;99.90;;;;;;4957600;28;20054;-84
2023/03/27 02:47:18;;;;;;;13.82;1.92;;;2.90;99.90;;;;;;4957832;28;20046;-85
2023/03/27 02:49:50;;;;;;;10.25;1.45;;;2.90;99.90;;;;;;4973126;28;20437;-84
2023/03/27 02:52:25;;;;;;;14.27;2.22;;;3.00;99.90;;;;;;4957105;28;20053;-85
2023/03/27 02:55:05;;;;;;;8.90;1.60;;;2.90;99.90;;;;;;4957486;28;20645;-85
2023/03/27 02:57:38;;;;;;;7.50;1.33;;;2.80;99.90;;;;;;4957868;28;20050;-85
2023/03/27 03:00:24;;;;;;;11.60;1.55;;;2.70;99.90;;;;;;4957071;28;20100;-85
2023/03/27 03:03:07;;;;;;;12.57;1.65;;;2.70;99.90;;;;;;4956733;28;20057;-85
2023/03/27 03:05:36;;;;;;;10.52;1.48;;;2.60;99.90;;;;;;4953622;28;20098;-85
2023/03/27 03:08:03;;;;;;;14.13;1.85;;;2.60;99.90;;;;;;4954645;28;20534;-85
2023/03/27 03:10:28;;;;;;;9.93;1.70;;;3.20;99.90;;;;;;4969636;28;20122;-84
2023/03/27 03:12:54;;;;;;;10.00;1.38;;;3.00;99.90;;;;;;4970394;28;20391;-85
2023/03/27 03:15:20;;;;;;;10.60;1.80;;;2.60;99.90;;;;;;4969683;28;20043;-84
2023/03/27 03:17:46;;;;;;;9.73;1.65;;;3.00;99.90;;;;;;4970254;28;20046;-85
2023/03/27 03:20:12;;;;;;;14.25;2.90;;;2.70;99.90;;;;;;4969951;28;20589;-84
2023/03/27 03:22:38;;;;;;;11.32;2.50;;;3.00;99.90;;;;;;4969983;28;20043;-84
2023/03/27 03:25:06;;;;;;;16.67;1.83;;;2.50;99.90;;;;;;4969432;28;20053;-85
2023/03/27 03:27:33;;;;;;;14.77;2.22;;;2.50;99.90;;;;;;4969812;28;20058;-85
2023/03/27 03:29:59;;;;;;;11.02;1.80;;;2.50;99.90;;;;;;4986144;28;20050;-85
2023/03/27 03:32:26;;;;;;;14.70;2.15;;;3.40;99.90;;;;;;4969934;28;20054;-85
2023/03/27 03:34:52;;;;;;;8.68;1.88;;;2.80;99.90;;;;;;4985991;28;20058;-84
2023/03/27 03:37:18;;;;;;;16.88;1.90;;;2.80;99.90;;;;;;4969566;28;20498;-85
2023/03/27 03:39:45;;;;;;;17.13;2.03;;;2.40;99.90;;;;;;4985963;28;20066;-85
2023/03/27 03:42:11;;;;;;;12.68;2.20;;;3.30;99.90;;;;;;4969660;28;20561;-84
2023/03/27 03:44:37;;;;;;;9.75;1.63;;;2.40;99.90;;;;;;4969534;28;20109;-84
2023/03/27 03:47:03;;;;;;;14.35;1.92;;;2.40;99.90;;;;;;4969659;28;20058;-85
2023/03/27 03:49:29;;;;;;;9.77;1.77;;;2.40;99.90;;;;;;4970395;28;20043;-85
2023/03/27 03:51:55;;;;;;;17.02;1.88;;;3.10;99.90;;;;;;4968394;28;20117;-84
2023/03/27 03:54:20;;;;;;;13.10;1.83;;;2.50;99.90;;;;;;4969335;28;20086;-84
2023/03/27 03:56:47;;;;;;;12.15;1.85;;;2.50;99.90;;;;;;4985200;28;20046;-85
2023/03/27 03:59:15;;;;;;;26.10;2.85;;;3.30;99.90;;;;;;4969211;28;20521;-84
2023/03/27 04:01:41;;;;;;;11.55;2.03;;;2.70;99.90;;;;;;4969818;28;20118;-85
2023/03/27 04:04:08;;;;;;;11.27;1.90;;;2.50;99.90;;;;;;4973295;28;20538;-86
2023/03/27 04:06:36;;;;;;;11.13;2.03;;;3.10;99.90;;;;;;4969949;28;20059;-86
2023/03/27 04:09:04;;;;;;;9.60;2.00;;;2.40;99.90;;;;;;4936002;29;20093;-87
2023/03/27 04:11:30;;;;;;;16.45;2.00;;;2.20;99.90;;;;;;4935835;29;20073;-87
2023/03/27 04:13:55;;;;;;;8.82;2.03;;;2.50;99.90;;;;;;4934384;29;20047;-85
2023/03/27 04:16:21;;;;;;;17.63;2.63;;;2.10;99.90;;;;;;4935051;29;20063;-85
2023/03/27 04:18:49;;;;;;;13.93;2.20;;;2.20;99.90;;;;;;4951055;29;20155;-85
2023/03/27 04:21:16;;;;;;;11.75;2.08;;;2.30;99.90;;;;;;4933298;29;20459;-85
2023/03/27 04:23:44;;;;;;;10.38;2.22;;;2.00;99.90;;;;;;4934847;29;20070;-86
2023/03/27 04:26:10;;;;;;;10.52;1.88;;;2.30;99.90;;;;;;4950197;29;20506;-85
2023/03/27 04:28:37;;;;;;;13.93;2.22;;;2.10;99.90;;;;;;4951038;29;20054;-85
2023/03/27 04:31:05;;;;;;;15.15;2.28;;;2.80;99.90;;;;;;4933912;29;20051;-86
2023/03/27 04:33:33;;;;;;;19.17;2.67;;;2.10;99.90;;;;;;4950292;29;20226;-84
2023/03/27 04:36:00;;;;;;;32.88;3.13;;;1.90;99.90;;;;;;4933618;29;20070;-86
2023/03/27 04:38:27;;;;;;;15.07;2.22;;;1.90;99.90;;;;;;4935075;29;20134;-86
2023/03/27 04:40:53;;;;;;;16.00;2.45;;;2.60;99.90;;;;;;4934509;29;20138;-85
2023/03/27 04:43:20;;;;;;;13.80;2.03;;;2.10;99.90;;;;;;4935153;29;20130;-86
2023/03/27 04:45:47;;;;;;;13.20;2.97;;;3.00;99.90;;;;;;4950731;29;20156;-86
2023/03/27 04:48:15;;;;;;;18.25;2.47;;;2.20;99.90;;;;;;4934741;29;20067;-85
2023/03/27 04:50:48;;;;;;;11.35;1.50;;;2.70;99.90;;;;;;4950104;28;20039;-85
2023/03/27 04:53:19;;;;;;;9.38;1.10;;;2.50;99.90;;;;;;4966522;28;20039;-85
2023/03/27 04:55:49;;;;;;;9.65;1.05;;;2.90;99.90;;;;;;4952414;28;20122;-86
2023/03/27 04:58:18;;;;;;;7.05;1.15;;;3.70;99.90;;;;;;4953655;28;20053;-85
2023/03/27 05:00:49;;;;;;;13.00;1.13;;;1.70;99.90;;;;;;4952008;28;20136;-85
2023/03/27 05:03:17;;;;;;;13.38;1.13;;;2.40;99.90;;;;;;4953181;28;20499;-87
2023/03/27 05:05:46;;;;;;;7.40;1.23;;;2.60;99.90;;;;;;4952507;28;20097;-87
2023/03/27 05:08:12;;;;;;;8.35;0.95;;;3.50;99.90;;;;;;4969735;28;20055;-86
2023/03/27 05:10:38;;;;;;;5.25;0.80;;;3.50;99.90;;;;;;4969196;28;20062;-86
2023/03/27 05:13:04;;;;;;;5.85;1.10;;;2.40;99.90;;;;;;4953451;28;20047;-87
2023/03/27 05:15:32;;;;;;;7.53;0.75;;;3.40;99.90;;;;;;4952534;28;20039;-86
2023/03/27 05:17:58;;;;;;;7.07;1.10;;;2.40;99.90;;;;;;4969603;28;20050;-86
2023/03/27 05:20:24;;;;;;;5.22;0.60;;;3.40;99.90;;;;;;4952595;28;20042;-86
2023/03/27 05:23:00;;;;;;;5.40;0.60;;;3.20;99.90;;;;;;4952504;28;20050;-85
2023/03/27 05:25:27;;;;;;;4.75;1.00;;;3.30;99.90;;;;;;4952610;28;20046;-86
2023/03/27 05:27:53;;;;;;;5.18;0.70;;;2.30;99.90;;;;;;4969173;28;20515;-85
2023/03/27 05:30:23;;;;;;;4.97;0.82;;;2.80;99.90;;;;;;4952458;28;20134;-86
2023/03/27 05:32:57;;;;;;;9.80;2.53;;;2.80;99.90;;;;;;4953161;28;20193;-86
2023/03/27 05:35:24;;;;;;;13.90;1.63;;;2.30;99.90;;;;;;4952255;28;20137;-86
2023/03/27 05:37:53;;;;;;;6.18;0.90;;;2.40;99.90;;;;;;4953106;28;20038;-86
2023/03/27 05:40:25;;;;;;;8.63;1.17;;;3.00;99.90;;;;;;4952682;28;20113;-87
2023/03/27 05:42:55;;;;;;;6.35;0.70;;;3.20;99.90;;;;;;4952942;28;20058;-87
2023/03/27 05:45:21;;;;;;;8.95;1.38;;;2.40;99.90;;;;;;4951962;28;20047;-86
2023/03/27 05:47:54;;;;;;;14.00;1.30;;;2.70;99.90;;;;;;4955141;28;20137;-86
2023/03/27 05:50:24;;;;;;;6.05;1.10;;;2.10;99.90;;;;;;4956464;28;20101;-86
2023/03/27 05:52:55;;;;;;;8.63;1.00;;;2.80;99.90;;;;;;4972976;28;20051;-86
2023/03/27 05:55:27;;;;;;;4.63;0.98;;;2.00;99.90;;;;;;4956355;28;20050;-87
2023/03/27 05:58:02;;;;;;;7.13;1.08;;;1.80;99.90;;;;;;4955785;28;20047;-88
2023/03/27 06:00:31;;;;;;;10.75;1.20;;;2.20;99.90;;;;;;4943422;29;20035;-86
2023/03/27 06:03:03;;;;;;;9.07;1.40;;;3.10;99.90;;;;;;4938288;29;20047;-87
2023/03/27 06:05:40;;;;;;;7.73;1.10;;;2.50;99.90;;;;;;4936830;29;20182;-86
2023/03/27 06:08:15;;;;;;;9.32;1.45;;;2.10;99.90;;;;;;4937071;29;20051;-85
2023/03/27 06:10:50;;;;;;;5.55;1.20;;;3.30;99.90;;;;;;4937756;29;20121;-86
2023/03/27 06:13:17;;;;;;;7.45;0.98;;;2.10;99.90;;;;;;4935770;29;20380;-85
2023/03/27 06:15:43;;;;;;;9.18;1.50;;;2.10;99.90;;;;;;4936541;29;20052;-86
2023/03/27 06:18:12;;;;;;;9.98;1.88;;;3.00;99.90;;;;;;4936292;29;20056;-86
2023/03/27 06:20:53;;;;;;;7.20;1.02;;;3.40;99.90;;;;;;4934667;29;20048;-86
2023/03/27 06:23:31;;;;;;;12.55;1.50;;;2.30;99.90;;;;;;4935916;29;20129;-85
2023/03/27 06:25:58;;;;;;;10.57;1.15;;;1.70;99.90;;;;;;4936302;29;20435;-86
2023/03/27 06:28:23;;;;;;;7.45;1.30;;;3.50;99.90;;;;;;4936562;29;20055;-86
2023/03/27 06:31:02;;;;;;;10.60;1.10;;;2.40;99.90;;;;;;4936157;29;20043;-86
2023/03/27 06:33:29;;;;;;;10.07;2.65;;;2.50;99.90;;;;;;4936425;29;20495;-86
2023/03/27 06:35:59;;;;;;;11.50;1.40;;;2.50;99.90;;;;;;4936231;29;20047;-86
2023/03/27 06:38:28;;;;;;;13.68;1.73;;;3.40;99.90;;;;;;4944754;28;20179;-86
2023/03/27 06:40:54;;;;;;;12.25;1.80;;;3.70;99.90;;;;;;4954952;28;20051;-86
2023/03/27 06:43:21;;;;;;;10.65;1.50;;;2.80;99.90;;;;;;4970378;28;20129;-87
2023/03/27 06:45:54;;;;;;;12.73;1.67;;;2.80;99.90;;;;;;4954800;28;20109;-86
2023/03/27 06:48:26;;;;;;;9.23;1.60;;;2.90;99.90;;;;;;4953791;28;20133;-86
2023/03/27 06:50:56;;;;;;;6.88;0.98;;;2.90;99.90;;;;;;4969676;28;20051;-86
2023/03/27 06:53:22;;;;;;;14.27;1.65;;;3.00;99.90;;;;;;4955096;28;20089;-88
2023/03/27 06:55:48;;;;;;;15.75;1.88;;;3.70;99.90;;;;;;4954685;28;20105;-87
2023/03/27 06:58:17;;;;;;;10.65;1.20;;;4.00;99.90;;;;;;4970861;28;20046;-87
2023/03/27 07:00:44;;;;;;;14.10;1.83;;;3.80;99.90;;;;;;4951412;28;20071;-86
2023/03/27 07:03:10;;;;;;;16.08;2.20;;;3.50;99.90;;;;;;4950473;29;20082;-87
2023/03/27 07:05:39;;;;;;;8.93;1.60;;;3.70;99.90;;;;;;4950230;29;20531;-86
2023/03/27 07:08:08;;;;;;;5.05;1.00;;;4.30;99.90;;;;;;4950431;28;20055;-85
2023/03/27 07:10:34;;;;;;;13.93;1.85;;;4.20;99.90;;;;;;4951368;29;20040;-87
2023/03/27 07:13:00;;;;;;;13.13;2.05;;;4.50;99.90;;;;;;4951383;29;20046;-86
2023/03/27 07:15:29;;;;;;;15.82;2.17;;;4.50;99.90;;;;;;4950353;29;20150;-85
2023/03/27 07:17:58;;;;;;;14.48;2.42;;;4.50;99.90;;;;;;4951541;29;20039;-85
2023/03/27 07:20:26;;;;;;;13.65;2.15;;;4.90;99.90;;;;;;4950229;28;20032;-85
2023/03/27 07:22:54;;;;;;;11.05;1.65;;;4.40;99.90;;;;;;4934584;29;20059;-85
2023/03/27 07:25:31;;;;;;;13.40;2.00;;;4.20;99.90;;;;;;4950269;28;20491;-86
2023/03/27 07:28:04;;;;;;;13.10;1.85;;;4.00;99.90;;;;;;4950460;28;20062;-86
2023/03/27 07:30:30;;;;;;;12.77;1.63;;;3.70;99.90;;;;;;4950797;28;20054;-85
2023/03/27 07:32:59;;;;;;;7.43;1.30;;;3.80;99.90;;;;;;4941843;28;20047;-86
2023/03/27 07:35:25;;;;;;;11.07;1.25;;;3.70;99.90;;;;;;4953075;28;20051;-85
2023/03/27 07:37:53;;;;;;;7.45;1.00;;;3.80;99.90;;;;;;4968346;28;20043;-86
2023/03/27 07:40:21;;;;;;;12.38;1.65;;;3.90;99.90;;;;;;4953274;28;20105;-85
2023/03/27 07:42:53;;;;;;;8.82;1.08;;;4.10;99.90;;;;;;4948065;28;20046;-85
2023/03/27 07:45:28;;;;;;;10.38;1.10;;;4.30;99.90;;;;;;4952043;28;20073;-85
2023/03/27 07:48:05;;;;;;;8.35;1.13;;;4.90;99.90;;;;;;4953636;28;20101;-86
2023/03/27 07:50:34;;;;;;;6.22;1.08;;;4.30;99.90;;;;;;4967756;28;20047;-85
2023/03/27 07:53:05;;;;;;;8.88;1.40;;;4.10;99.90;;;;;;4952869;28;20046;-85
2023/03/27 07:55:36;;;;;;;10.88;1.55;;;4.00;99.90;;;;;;4969467;28;20085;-84
2023/03/27 07:58:05;;;;;;;7.75;0.90;;;4.00;99.90;;;;;;4953793;28;20047;-86
2023/03/27 08:00:41;;;;;;;4.68;0.90;;;4.00;99.90;;;;;;4953841;28;20078;-85
2023/03/27 08:03:10;;;;;;;9.95;1.20;;;4.10;99.90;;;;;;4954165;28;20093;-84
2023/03/27 08:06:01;;;;;;;6.55;1.20;;;4.50;99.90;;;;;;4968372;28;20051;-84
2023/03/27 08:08:27;;;;;;;4.60;1.13;;;4.00;99.90;;;;;;4953667;28;20046;-85
2023/03/27 08:10:54;;;;;;;10.82;1.15;;;4.20;99.90;;;;;;4952735;28;20046;-84
2023/03/27 08:13:20;;;;;;;7.15;1.10;;;4.40;99.90;;;;;;4969040;28;20043;-84
2023/03/27 08:15:46;;;;;;;5.43;0.90;;;4.00;99.90;;;;;;4953100;28;20130;-84
2023/03/27 08:18:11;;;;;;;11.10;1.05;;;4.10;99.90;;;;;;4952798;28;20054;-85
2023/03/27 08:20:37;;;;;;;6.22;0.90;;;4.20;99.90;;;;;;4951419;28;20398;-85
2023/03/27 08:23:03;;;;;;;10.73;1.25;;;4.30;99.90;;;;;;4953322;28;20458;-86
2023/03/27 08:25:32;;;;;;;5.65;1.10;;;4.40;99.90;;;;;;4966882;28;20098;-86
2023/03/27 08:27:58;;;;;;;9.68;1.42;;;4.70;99.90;;;;;;4967035;28;20055;-86
2023/03/27 08:30:24;;;;;;;12.75;1.23;;;5.00;99.90;;;;;;4950375;28;20051;-86
2023/03/27 08:32:50;;;;;;;6.70;1.42;;;4.50;99.90;;;;;;4965647;28;20051;-86
2023/03/27 08:35:17;;;;;;;9.57;1.33;;;4.80;99.90;;;;;;4949635;28;20551;-86
2023/03/27 08:37:43;;;;;;;13.93;1.27;;;4.70;99.90;;;;;;4949892;28;20769;-86
2023/03/27 08:40:19;;;;;;;13.02;3.00;;;4.90;99.90;;;;;;4949768;28;20047;-86
2023/03/27 08:42:49;;;;;;;10.05;1.00;;;5.10;99.90;;;;;;4950199;28;20042;-86
2023/03/27 08:45:25;;;;;;;13.18;1.23;;;5.20;99.90;;;;;;4950164;28;20085;-87
2023/03/27 08:47:59;;;;;;;12.35;1.50;;;5.40;99.90;;;;;;4949710;28;20054;-87
2023/03/27 08:50:35;;;;;;;11.13;1.30;;;5.30;99.90;;;;;;4949857;28;20054;-86
2023/03/27 08:53:06;;;;;;;12.55;1.65;;;5.10;99.90;;;;;;4950071;28;20170;-87
2023/03/27 08:55:41;;;;;;;9.05;1.35;;;5.10;99.90;;;;;;4949783;28;20051;-87
2023/03/27 08:58:18;;;;;;;8.75;1.58;;;5.00;99.90;;;;;;4950527;28;20049;-86
2023/03/27 09:00:52;;;;;;;10.77;1.83;;;5.10;99.90;;;;;;4930893;29;20218;-87
2023/03/27 09:03:33;;;;;;;6.35;1.30;;;5.60;99.90;;;;;;4946843;29;20051;-87
2023/03/27 09:06:02;;;;;;;10.68;1.10;;;5.50;99.90;;;;;;4911370;29;20139;-86
2023/03/27 09:08:49;;;;;;;6.68;1.00;;;5.60;99.90;;;;;;4927159;29;20616;-85
2023/03/27 09:11:31;;;;;;;8.30;1.15;;;5.50;99.90;;;;;;4912082;29;20058;-86
2023/03/27 09:13:59;;;;;;;5.72;1.20;;;5.40;99.90;;;;;;4911854;29;20047;-87
2023/03/27 09:16:31;;;;;;;7.30;0.82;;;5.30;99.90;;;;;;4910613;29;20054;-87
2023/03/27 09:19:15;;;;;;;8.90;1.08;;;5.50;99.90;;;;;;4929003;29;20051;-85
2023/03/27 09:22:01;;;;;;;7.03;0.75;;;5.70;99.90;;;;;;4926491;29;20048;-85
2023/03/27 09:24:29;;;;;;;4.75;0.80;;;5.80;99.90;;;;;;4912165;29;20131;-85
2023/03/27 09:26:55;;;;;;;6.80;0.68;;;6.40;99.90;;;;;;4926680;29;20056;-85
2023/03/27 09:29:25;;;;;;;3.88;0.73;;;5.90;99.90;;;;;;4910602;29;20047;-86
2023/03/27 09:31:55;;;;;;;4.80;0.70;;;5.90;99.90;;;;;;4910396;29;20503;-86
2023/03/27 09:34:26;;;;;;;8.07;0.93;;;5.90;99.90;;;;;;4927200;29;20174;-86
2023/03/27 09:36:53;;;;;;;5.97;0.75;;;5.90;99.90;;;;;;4925392;29;20047;-85
2023/03/27 09:39:24;;;;;;;10.48;1.27;;;5.90;99.90;;;;;;4926685;29;20103;-85
2023/03/27 09:41:54;;;;;;;7.57;0.95;;;6.10;99.90;;;;;;4910893;29;20048;-86
2023/03/27 09:44:30;;;;;;;4.47;0.70;;;6.20;99.90;;;;;;4925970;29;20515;-86
2023/03/27 09:46:58;;;;;;;3.90;0.77;;;6.30;99.90;;;;;;4931668;29;20106;-86
2023/03/27 09:49:26;;;;;;;6.93;1.05;;;6.50;99.90;;;;;;4932878;29;20110;-86
2023/03/27 09:51:53;;;;;;;9.13;0.80;;;6.40;99.90;;;;;;4931096;29;20154;-86
2023/03/27 09:54:22;;;;;;;10.73;1.27;;;6.60;99.90;;;;;;4931982;29;20047;-86
2023/03/27 09:56:53;;;;;;;6.70;0.93;;;6.40;99.90;;;;;;4931685;29;20514;-86
2023/03/27 09:59:28;;;;;;;8.18;1.15;;;6.50;99.90;;;;;;4928622;29;20054;-86
2023/03/27 10:01:58;;;;;;;12.13;1.13;;;6.50;99.90;;;;;;4928637;29;20052;-84
2023/03/27 10:04:26;;;;;;;8.98;1.17;;;6.60;99.90;;;;;;4936742;29;20059;-85
2023/03/27 10:07:00;;;;;;;9.00;1.13;;;6.60;99.90;;;;;;4946795;29;20142;-85
2023/03/27 10:09:33;;;;;;;10.45;1.38;;;6.70;99.90;;;;;;4948337;28;20050;-85
2023/03/27 10:12:09;;;;;;;8.25;1.23;;;6.60;99.90;;;;;;4947865;28;20044;-85
2023/03/27 10:14:42;;;;;;;7.30;1.10;;;6.60;99.90;;;;;;4947767;28;20078;-87
2023/03/27 10:17:22;;;;;;;8.07;0.98;;;6.70;99.90;;;;;;4948804;28;20051;-87
2023/03/27 10:19:51;;;;;;;5.13;0.80;;;6.20;99.90;;;;;;4950206;28;20047;-85
2023/03/27 10:22:26;;;;;;;6.80;1.05;;;6.10;99.90;;;;;;4963715;28;20077;-89
2023/03/27 10:24:56;;;;;;;5.32;1.10;;;6.20;99.90;;;;;;4950458;28;20147;-89
2023/03/27 10:27:34;;;;;;;8.50;1.10;;;6.40;99.90;;;;;;4951422;28;20038;-88
2023/03/27 10:30:00;;;;;;;9.15;0.95;;;6.60;99.90;;;;;;4951112;28;20043;-89
2023/03/27 10:32:44;;;;;;;6.90;1.30;;;6.80;99.90;;;;;;4952509;28;20049;-89
2023/03/27 10:35:43;;;;;;;7.82;1.08;;;6.90;99.90;;;;;;4954087;28;20051;-88
2023/03/27 10:38:13;;;;;;;4.28;0.73;;;6.90;99.90;;;;;;4956010;28;20046;-88
2023/03/27 10:41:08;;;;;;;5.72;0.90;;;6.70;99.90;;;;;;4957268;28;20514;-87
2023/03/27 10:43:44;;;;;;;7.70;1.33;;;6.80;99.90;;;;;;4956211;28;20137;-88
2023/03/27 10:49:06;;;;;;;12.98;0.98;;;7.10;99.90;;;;;;4979430;23;20086;-90
2023/03/27 10:51:53;;;;;;;8.85;1.67;;;6.90;99.90;;;;;;4954622;28;20039;-90
2023/03/27 10:54:31;;;;;;;9.70;1.38;;;6.50;99.90;;;;;;4935286;28;20118;-88
2023/03/27 10:57:27;;;;;;;8.05;1.55;;;6.80;99.90;;;;;;4935400;28;20039;-87
2023/03/27 11:00:19;;;;;;;8.38;0.80;;;7.00;99.90;;;;;;4937823;28;20073;-87
2023/03/27 11:02:56;;;;;;;8.60;1.38;;;7.10;99.90;;;;;;4949990;28;20066;-88
2023/03/27 11:05:29;;;;;;;8.43;1.38;;;7.20;99.90;;;;;;4948685;28;20051;-88
2023/03/27 11:08:04;;;;;;;14.95;2.28;;;7.30;99.90;;;;;;4936413;28;20062;-88
2023/03/27 11:10:39;;;;;;;8.35;1.25;;;7.50;99.90;;;;;;4936459;28;20042;-89
2023/03/27 11:13:42;;;;;;;6.28;1.10;;;7.50;99.90;;;;;;4936538;28;20531;-87
2023/03/27 11:16:37;;;;;;;12.18;1.27;;;7.70;99.90;;;;;;4914554;28;20051;-89
2023/03/27 11:19:15;;;;;;;9.05;1.20;;;8.00;99.90;;;;;;4936780;28;20643;-88
2023/03/27 11:21:48;;;;;;;9.38;1.10;;;8.10;99.90;;;;;;4937565;28;20062;-88
2023/03/27 11:24:28;;;;;;;9.73;1.40;;;8.00;99.90;;;;;;4935514;29;20043;-88
2023/03/27 11:27:18;;;;;;;15.70;1.67;;;7.80;99.90;;;;;;4935221;29;20058;-87
2023/03/27 11:30:09;;;;;;;19.02;1.80;;;7.20;99.90;;;;;;4935149;29;20073;-88
2023/03/27 11:32:49;;;;;;;11.18;1.30;;;6.70;99.90;;;;;;4935614;29;20049;-88
2023/03/27 11:35:35;;;;;;;12.65;1.65;;;6.20;99.90;;;;;;4918602;29;20059;-86
2023/03/27 11:38:11;;;;;;;15.98;1.67;;;5.80;99.90;;;;;;4920737;29;20512;-88
2023/03/27 11:40:44;;;;;;;5.13;0.77;;;5.80;99.90;;;;;;4920394;29;20035;-87
2023/03/27 11:43:13;;;;;;;8.60;1.38;;;5.50;99.90;;;;;;4919134;29;20106;-86
2023/03/27 11:46:08;;;;;;;8.38;1.27;;;5.50;99.90;;;;;;4934467;29;20078;-88
2023/03/27 11:49:13;;;;;;;7.63;1.15;;;5.70;99.90;;;;;;4918156;29;20063;-88
2023/03/27 11:52:21;;;;;;;16.23;1.50;;;6.10;99.90;;;;;;4933997;29;20384;-87
2023/03/27 11:55:11;;;;;;;12.38;1.38;;;6.60;99.90;;;;;;4935083;29;20142;-88
2023/03/27 11:57:58;;;;;;;7.15;1.02;;;7.00;99.90;;;;;;4918266;29;20165;-88
2023/03/27 12:00:33;;;;;;;8.32;1.00;;;7.00;99.90;;;;;;4934089;29;20055;-87
2023/03/27 12:03:00;;;;;;;5.82;0.73;;;6.90;99.90;;;;;;4935013;29;20043;-88
2023/03/27 12:05:57;;;;;;;6.75;0.77;;;6.70;99.90;;;;;;4933924;29;20050;-87
2023/03/27 12:08:29;;;;;;;10.38;1.60;;;6.70;99.90;;;;;;4950634;29;20050;-87
2023/03/27 12:10:58;;;;;;;7.53;1.33;;;6.90;99.90;;;;;;4933880;29;20154;-88
2023/03/27 12:14:11;;;;;;;9.65;1.40;;;7.00;99.90;;;;;;4934240;29;20391;-87
2023/03/27 12:16:51;;;;;;;5.75;1.27;;;7.10;99.90;;;;;;4934176;29;20136;-87
2023/03/27 12:19:57;;;;;;;11.25;1.00;;;7.30;99.90;;;;;;4933127;29;20043;-87
2023/03/27 12:22:35;;;;;;;13.35;1.77;;;7.40;99.90;;;;;;4933184;29;20051;-87
2023/03/27 12:25:20;;;;;;;7.47;1.00;;;7.30;99.90;;;;;;4933414;29;20054;-88
2023/03/27 12:28:16;;;;;;;7.68;1.00;;;7.10;99.90;;;;;;4933699;29;20043;-89
2023/03/27 12:31:24;;;;;;;9.18;1.00;;;6.90;99.90;;;;;;4933939;29;20063;-88
2023/03/27 12:34:20;;;;;;;6.45;1.00;;;7.00;99.90;;;;;;4933341;29;20043;-88
2023/03/27 12:37:00;;;;;;;9.60;1.65;;;7.00;99.90;;;;;;4931461;29;20162;-87
2023/03/27 12:39:27;;;;;;;9.32;1.23;;;7.10;99.90;;;;;;4933036;29;20086;-87
2023/03/27 12:41:53;;;;;;;13.00;1.67;;;7.10;99.90;;;;;;4934226;29;20054;-87
2023/03/27 12:44:54;;;;;;;8.88;1.48;;;7.10;99.90;;;;;;4934171;29;20043;-86
2023/03/27 12:47:30;;;;;;;10.07;1.60;;;7.00;99.90;;;;;;4933015;29;20066;-87
2023/03/27 12:50:40;;;;;;;8.52;0.98;;;7.00;99.90;;;;;;4933441;29;20113;-88
2023/03/27 12:53:18;;;;;;;11.55;1.48;;;7.00;99.90;;;;;;4933487;29;20395;-87
2023/03/27 12:55:44;;;;;;;7.32;1.23;;;7.00;99.90;;;;;;4933036;29;20084;-87
2023/03/27 12:58:39;;;;;;;5.70;0.70;;;7.10;99.90;;;;;;4933741;29;20054;-88
2023/03/27 13:01:33;;;;;;;5.22;1.30;;;7.10;99.90;;;;;;4932571;29;20082;-86
2023/03/27 13:04:35;;;;;;;7.82;1.30;;;7.10;99.90;;;;;;4933964;29;20050;-87
2023/03/27 13:07:25;;;;;;;11.00;1.08;;;7.00;99.90;;;;;;4932020;29;20051;-87
2023/03/27 13:10:14;;;;;;;11.73;1.50;;;7.00;99.90;;;;;;4933788;29;20047;-87
2023/03/27 13:12:56;;;;;;;12.10;1.77;;;7.20;99.90;;;;;;4933919;29;20086;-87
2023/03/27 13:15:51;;;;;;;12.88;1.15;;;7.50;99.90;;;;;;4932766;29;20059;-87
2023/03/27 13:18:26;;;;;;;11.38;1.25;;;7.40;99.90;;;;;;4933507;29;20054;-87
2023/03/27 13:21:11;;;;;;;;;;;;;;;;;;;;;
2023/03/27 13:24:01;;;;;;;12.23;0.98;;;7.50;99.90;;;;;;4933470;29;20113;-87
2023/03/27 13:27:03;;;;;;;8.73;1.58;;;7.40;99.90;;;;;;4932980;29;20154;-87